Time;durP1;ratioP1;P1;durP2;ratioP2;P2;SDS_P1;SDS_P2;PMS_P1;PMS_P2;Temp;Humidity;BMP_temperature;BMP_pressure;BME280_temperature;BME280_humidity;BME280_pressure;Samples;Min_cycle;Max_cycle;Signal;HPM_P1;HPM_P2
2022/04/03 03:01:46;;;;;;;19.73;16.70;;;1.10;99.90;;;;;;5281886;23;20737;-76
2022/04/03 03:04:11;;;;;;;18.37;15.83;;;1.10;99.90;;;;;;4913933;29;20192;-77
2022/04/03 03:06:38;;;;;;;19.23;17.33;;;1.00;99.90;;;;;;4898565;29;20661;-76
2022/04/03 03:09:04;;;;;;;18.57;16.57;;;1.10;99.90;;;;;;4912783;29;20193;-76
2022/04/03 03:11:30;;;;;;;18.60;16.70;;;1.00;99.90;;;;;;4898507;29;20219;-76
2022/04/03 03:13:55;;;;;;;19.03;16.90;;;1.10;99.90;;;;;;4898527;29;20194;-76
2022/04/03 03:16:21;;;;;;;18.13;16.33;;;1.00;99.90;;;;;;4946563;23;20238;-76
2022/04/03 03:18:47;;;;;;;19.13;17.07;;;1.10;99.90;;;;;;4937364;29;20265;-75
2022/04/03 03:21:13;;;;;;;21.47;17.43;;;1.10;99.90;;;;;;4936501;29;20273;-76
2022/04/03 03:23:40;;;;;;;19.73;17.63;;;1.10;99.90;;;;;;4936866;29;20228;-76
2022/04/03 03:26:06;;;;;;;18.43;16.53;;;1.10;99.90;;;;;;4935104;29;20233;-76
2022/04/03 03:28:32;;;;;;;19.87;17.97;;;1.10;99.90;;;;;;4935185;29;20197;-74
2022/04/03 03:30:58;;;;;;;20.07;18.03;;;1.10;99.90;;;;;;4935316;29;20212;-74
2022/04/03 03:33:24;;;;;;;21.30;19.03;;;1.10;99.90;;;;;;4935211;29;20200;-77
2022/04/03 03:35:49;;;;;;;20.03;18.20;;;1.10;99.90;;;;;;4935127;29;20267;-75
2022/04/03 03:38:15;;;;;;;24.03;20.73;;;1.10;99.90;;;;;;4934948;29;20236;-74
2022/04/03 03:40:41;;;;;;;21.33;19.20;;;1.10;99.90;;;;;;4934874;29;20175;-77
2022/04/03 03:43:09;;;;;;;21.90;19.90;;;1.10;99.90;;;;;;4934329;29;20603;-75
2022/04/03 03:45:36;;;;;;;21.07;19.20;;;1.10;99.90;;;;;;4926679;29;20214;-76
2022/04/03 03:48:02;;;;;;;23.17;21.07;;;1.10;99.90;;;;;;4931320;29;20221;-75
2022/04/03 03:50:27;;;;;;;23.23;20.60;;;1.10;99.90;;;;;;4937059;29;20683;-75
2022/04/03 03:52:53;;;;;;;23.10;19.77;;;1.10;99.90;;;;;;4937733;29;20301;-75
2022/04/03 03:55:19;;;;;;;20.67;18.57;;;1.10;99.90;;;;;;4935457;29;20236;-76
2022/04/03 03:57:46;;;;;;;21.40;19.20;;;1.10;99.90;;;;;;4936724;29;20183;-76
2022/04/03 04:00:14;;;;;;;21.20;18.90;;;1.10;99.90;;;;;;4936708;29;20184;-76
2022/04/03 04:02:39;;;;;;;21.43;19.43;;;1.10;99.90;;;;;;4935990;29;20192;-75
2022/04/03 04:05:06;;;;;;;19.90;18.00;;;1.10;99.90;;;;;;4931205;29;20578;-76
2022/04/03 04:07:52;;;;;;;19.67;17.87;;;1.00;99.90;;;;;;4916961;29;20567;-75
2022/04/03 04:10:18;;;;;;;19.00;17.07;;;1.00;99.90;;;;;;4916113;29;20197;-75
2022/04/03 04:12:45;;;;;;;21.57;19.60;;;1.10;99.90;;;;;;4917404;29;20215;-76
2022/04/03 04:15:12;;;;;;;19.40;17.63;;;1.10;99.90;;;;;;4926287;29;20210;-75
2022/04/03 04:17:42;;;;;;;22.90;20.80;;;1.10;99.90;;;;;;4936611;29;20207;-76
2022/04/03 04:20:12;;;;;;;18.50;16.73;;;1.10;99.90;;;;;;4936352;29;20221;-76
2022/04/03 04:22:43;;;;;;;17.07;15.37;;;1.10;99.90;;;;;;4935959;29;20653;-75
2022/04/03 04:25:11;;;;;;;16.30;14.70;;;1.10;99.90;;;;;;4921665;29;20213;-75
2022/04/03 04:27:37;;;;;;;15.30;13.80;;;1.10;99.90;;;;;;4914891;29;20198;-75
2022/04/03 04:30:04;;;;;;;16.97;13.90;;;1.10;99.90;;;;;;4916024;29;20228;-75
2022/04/03 04:32:30;;;;;;;14.73;13.33;;;1.00;99.90;;;;;;4915505;29;20212;-76
2022/04/03 04:34:56;;;;;;;14.40;12.90;;;1.00;99.90;;;;;;4926584;29;20263;-75
2022/04/03 04:37:22;;;;;;;14.87;13.47;;;1.00;99.90;;;;;;4933912;29;20185;-75
2022/04/03 04:39:48;;;;;;;15.40;13.13;;;1.00;99.90;;;;;;4934419;29;20179;-75
2022/04/03 04:42:14;;;;;;;13.80;12.40;;;1.00;99.90;;;;;;4935023;29;20182;-75
2022/04/03 04:44:40;;;;;;;13.60;12.20;;;1.00;99.90;;;;;;4928476;29;20247;-75
2022/04/03 04:47:06;;;;;;;14.17;12.73;;;1.00;99.90;;;;;;4915159;29;20186;-75
2022/04/03 04:49:32;;;;;;;13.90;12.50;;;1.00;99.90;;;;;;4916446;29;20736;-75
2022/04/03 04:51:59;;;;;;;13.83;12.43;;;1.00;99.90;;;;;;4916296;29;20255;-76
2022/04/03 04:54:26;;;;;;;13.60;12.27;;;1.00;99.90;;;;;;4923054;29;20189;-75
2022/04/03 04:56:53;;;;;;;14.37;12.97;;;1.00;99.90;;;;;;4934720;29;20201;-75
2022/04/03 04:59:19;;;;;;;14.30;11.83;;;1.00;99.90;;;;;;4934898;29;20198;-76
2022/04/03 05:01:45;;;;;;;15.17;13.07;;;1.00;99.90;;;;;;4934909;29;20196;-76
2022/04/03 05:04:11;;;;;;;14.63;13.17;;;1.00;99.90;;;;;;4932989;29;20552;-77
2022/04/03 05:06:37;;;;;;;15.03;13.73;;;1.00;99.90;;;;;;4915907;29;20690;-76
2022/04/03 05:09:04;;;;;;;15.37;14.07;;;1.10;99.90;;;;;;4914483;29;20293;-76
2022/04/03 05:11:31;;;;;;;17.27;14.93;;;1.00;99.90;;;;;;4914452;29;20265;-76
2022/04/03 05:13:58;;;;;;;15.07;13.57;;;1.00;99.90;;;;;;4916736;29;20187;-76
2022/04/03 05:16:24;;;;;;;13.73;12.40;;;1.10;99.90;;;;;;4932749;29;20217;-75
2022/04/03 05:18:52;;;;;;;14.53;12.90;;;1.10;99.90;;;;;;4933249;29;20183;-75
2022/04/03 05:21:17;;;;;;;13.17;11.90;;;1.10;99.90;;;;;;4933986;29;20213;-76
2022/04/03 05:23:43;;;;;;;13.50;12.10;;;1.10;99.90;;;;;;4933161;29;20219;-77
2022/04/03 05:26:10;;;;;;;12.63;11.33;;;1.10;99.90;;;;;;4931322;29;20207;-75
2022/04/03 05:28:36;;;;;;;15.80;12.70;;;1.00;99.90;;;;;;4934328;29;20223;-76
2022/04/03 05:31:03;;;;;;;14.03;12.70;;;1.10;99.90;;;;;;4934354;29;20302;-76
2022/04/03 05:33:28;;;;;;;14.67;13.17;;;1.10;99.90;;;;;;4933230;29;20638;-75
2022/04/03 05:35:54;;;;;;;15.97;14.53;;;1.10;99.90;;;;;;4930541;29;20289;-75
2022/04/03 05:38:20;;;;;;;17.53;16.13;;;1.20;99.90;;;;;;4913964;29;20197;-76
2022/04/03 05:40:46;;;;;;;16.67;15.20;;;1.20;99.90;;;;;;4914167;29;20194;-76
2022/04/03 05:43:12;;;;;;;17.63;15.87;;;1.30;99.90;;;;;;4916679;29;20184;-76
2022/04/03 05:45:38;;;;;;;14.57;13.30;;;1.40;99.90;;;;;;4915212;29;20579;-76
2022/04/03 05:48:07;;;;;;;15.17;13.70;;;1.40;99.90;;;;;;4915035;29;20183;-76
2022/04/03 05:50:35;;;;;;;14.57;13.27;;;1.50;99.90;;;;;;4922926;29;20598;-75
2022/04/03 05:53:01;;;;;;;16.07;13.70;;;1.60;99.90;;;;;;4933271;29;20227;-76
2022/04/03 05:55:27;;;;;;;12.60;11.30;;;1.60;99.90;;;;;;4934845;29;20209;-76
2022/04/03 05:57:53;;;;;;;13.77;11.47;;;1.70;99.90;;;;;;4934374;29;20184;-76
2022/04/03 06:00:21;;;;;;;12.63;11.47;;;1.70;99.90;;;;;;4934186;29;20270;-75
2022/04/03 06:02:48;;;;;;;11.00;10.00;;;1.80;99.90;;;;;;4933308;29;20739;-75
2022/04/03 06:05:19;;;;;;;11.03;10.13;;;1.80;99.90;;;;;;4933997;29;20592;-75
2022/04/03 06:07:45;;;;;;;11.73;10.63;;;1.90;99.90;;;;;;4931700;29;20189;-75
2022/04/03 06:10:11;;;;;;;11.50;10.40;;;2.00;99.90;;;;;;4932902;29;20536;-75
2022/04/03 06:12:37;;;;;;;16.33;11.07;;;2.10;99.90;;;;;;4933001;29;20227;-75
2022/04/03 06:15:03;;;;;;;13.07;11.27;;;2.10;99.90;;;;;;4936430;29;20216;-75
2022/04/03 06:17:29;;;;;;;14.43;9.93;;;2.10;99.90;;;;;;4939655;29;20182;-74
2022/04/03 06:19:54;;;;;;;11.30;10.20;;;2.20;99.90;;;;;;4933415;29;20177;-75
2022/04/03 06:22:20;;;;;;;15.70;14.17;;;2.20;99.90;;;;;;4933943;29;20237;-73
2022/04/03 06:24:46;;;;;;;18.13;16.70;;;2.30;99.90;;;;;;4940547;29;20577;-74
2022/04/03 06:27:14;;;;;;;16.97;15.77;;;2.30;99.90;;;;;;4936089;29;20193;-74
2022/04/03 06:29:40;;;;;;;15.17;13.93;;;2.30;99.90;;;;;;4930123;29;20205;-75
2022/04/03 06:32:06;;;;;;;14.97;13.70;;;2.30;99.90;;;;;;4932921;29;20217;-75
2022/04/03 06:34:32;;;;;;;14.03;13.07;;;2.30;99.90;;;;;;4920631;28;20658;-75
2022/04/03 06:36:58;;;;;;;13.87;12.40;;;2.40;99.90;;;;;;4928691;29;20356;-75
2022/04/03 06:39:24;;;;;;;12.47;11.53;;;2.50;99.90;;;;;;4931962;29;20178;-75
2022/04/03 06:41:50;;;;;;;11.27;10.40;;;2.60;99.90;;;;;;4932240;29;20185;-75
2022/04/03 06:44:16;;;;;;;11.07;9.80;;;2.70;99.90;;;;;;4932205;29;20192;-76
2022/04/03 06:46:41;;;;;;;10.57;9.20;;;2.70;99.90;;;;;;4930071;29;20723;-76
2022/04/03 06:49:07;;;;;;;9.90;8.80;;;2.80;99.90;;;;;;4933749;29;20197;-74
2022/04/03 06:51:33;;;;;;;10.50;9.50;;;2.80;99.90;;;;;;4936663;29;20295;-75
2022/04/03 06:53:59;;;;;;;10.07;9.13;;;2.80;99.90;;;;;;4936392;29;20177;-75
2022/04/03 06:56:24;;;;;;;11.00;10.13;;;2.90;99.90;;;;;;4935619;29;20200;-75
2022/04/03 06:58:50;;;;;;;10.57;9.67;;;3.00;99.90;;;;;;4936183;29;20181;-75
2022/04/03 07:01:16;;;;;;;12.90;10.03;;;3.10;99.90;;;;;;4926456;29;20186;-76
2022/04/03 07:03:41;;;;;;;10.97;10.07;;;3.10;99.90;;;;;;4926619;29;20698;-75
2022/04/03 07:06:07;;;;;;;10.00;9.20;;;3.10;99.90;;;;;;4935993;29;20208;-73
2022/04/03 07:08:33;;;;;;;10.43;9.50;;;3.20;99.90;;;;;;4934352;29;20192;-73
2022/04/03 07:10:59;;;;;;;11.00;9.93;;;3.30;99.90;;;;;;4936574;29;20259;-72
2022/04/03 07:13:24;;;;;;;10.27;9.47;;;3.40;99.90;;;;;;4934879;29;20186;-73
2022/04/03 07:15:50;;;;;;;10.80;9.83;;;3.50;99.90;;;;;;4916930;29;20308;-73
2022/04/03 07:18:16;;;;;;;9.83;8.93;;;3.50;99.90;;;;;;4916977;29;20183;-73
2022/04/03 07:20:46;;;;;;;9.80;9.00;;;3.60;99.90;;;;;;4916973;29;20181;-73
2022/04/03 07:23:12;;;;;;;11.30;9.97;;;3.70;99.90;;;;;;4926067;29;20182;-72
2022/04/03 07:25:38;;;;;;;10.17;9.47;;;3.60;99.90;;;;;;4919454;29;20212;-72
2022/04/03 07:28:04;;;;;;;9.40;8.70;;;3.60;99.90;;;;;;4919153;29;20674;-72
2022/04/03 07:30:29;;;;;;;9.93;9.03;;;3.70;99.90;;;;;;4939529;29;20183;-72
2022/04/03 07:32:57;;;;;;;9.73;8.93;;;3.70;99.90;;;;;;4935397;29;20227;-72
2022/04/03 07:35:23;;;;;;;9.13;8.33;;;3.70;99.90;;;;;;4935162;29;20304;-72
2022/04/03 07:37:48;;;;;;;9.60;8.70;;;3.90;99.90;;;;;;4934924;29;20248;-73
2022/04/03 07:40:14;;;;;;;9.23;8.50;;;4.00;99.90;;;;;;4936236;29;20292;-73
2022/04/03 07:42:40;;;;;;;9.80;8.80;;;4.10;99.90;;;;;;4923274;29;20194;-73
2022/04/03 07:45:06;;;;;;;9.23;8.43;;;4.20;99.90;;;;;;4928736;29;20209;-72
2022/04/03 07:47:34;;;;;;;9.50;8.63;;;4.40;99.90;;;;;;4935419;29;20206;-73
2022/04/03 07:50:04;;;;;;;9.47;8.67;;;4.40;99.90;;;;;;4934374;29;20189;-73
2022/04/03 07:52:30;;;;;;;9.30;8.53;;;4.60;99.90;;;;;;4935762;29;20620;-73
2022/04/03 07:54:56;;;;;;;9.70;9.00;;;4.70;99.90;;;;;;4930572;29;20206;-73
2022/04/03 07:57:24;;;;;;;10.50;9.67;;;4.90;99.90;;;;;;4923257;29;20202;-73
2022/04/03 07:59:49;;;;;;;8.57;7.97;;;5.20;99.90;;;;;;4933709;29;20191;-72
2022/04/03 08:02:16;;;;;;;8.17;6.80;;;5.20;99.90;;;;;;4935413;29;20190;-72
2022/04/03 08:04:41;;;;;;;8.43;7.53;;;5.20;99.90;;;;;;4934384;29;20185;-71
2022/04/03 08:07:07;;;;;;;7.37;6.83;;;5.30;99.90;;;;;;4934994;29;20184;-70
2022/04/03 08:09:33;;;;;;;8.60;8.00;;;5.30;99.90;;;;;;4923895;29;20186;-70
2022/04/03 08:11:59;;;;;;;8.63;7.83;;;5.10;99.90;;;;;;4916395;29;20222;-70
2022/04/03 08:14:26;;;;;;;9.53;7.43;;;4.80;99.90;;;;;;4922766;29;20189;-70
2022/04/03 08:16:52;;;;;;;8.47;7.87;;;4.50;99.90;;;;;;4932559;29;20214;-71
2022/04/03 08:19:18;;;;;;;9.17;8.47;;;4.40;99.90;;;;;;4933930;29;20182;-71
2022/04/03 08:21:44;;;;;;;7.87;7.33;;;4.40;99.90;;;;;;4934521;29;20196;-71
2022/04/03 08:24:10;;;;;;;7.53;6.93;;;4.70;99.90;;;;;;4915656;29;20183;-71
2022/04/03 08:26:35;;;;;;;7.67;7.17;;;4.90;99.90;;;;;;4916533;29;20265;-71
2022/04/03 08:29:01;;;;;;;8.23;7.43;;;5.00;99.90;;;;;;4915990;29;20201;-71
2022/04/03 08:31:30;;;;;;;8.07;7.47;;;5.40;99.90;;;;;;4915944;29;20219;-71
2022/04/03 08:33:56;;;;;;;8.60;8.00;;;5.50;99.90;;;;;;4916256;29;20190;-71
2022/04/03 08:36:22;;;;;;;7.93;7.33;;;6.10;99.90;;;;;;4918219;29;20266;-71
2022/04/03 08:38:50;;;;;;;8.50;7.73;;;6.90;99.90;;;;;;4934447;29;20190;-71
2022/04/03 08:41:16;;;;;;;9.50;8.77;;;7.70;99.90;;;;;;4934041;29;20194;-71
2022/04/03 08:43:41;;;;;;;7.37;6.77;;;8.50;99.90;;;;;;4933814;29;20179;-71
2022/04/03 08:46:08;;;;;;;6.90;6.40;;;9.10;99.90;;;;;;4935024;29;20254;-71
2022/04/03 08:48:34;;;;;;;8.67;6.40;;;8.70;99.90;;;;;;4934576;29;20608;-73
2022/04/03 08:51:03;;;;;;;6.67;6.20;;;8.20;99.90;;;;;;4919575;29;20246;-71
2022/04/03 08:53:30;;;;;;;10.33;7.23;;;8.00;99.90;;;;;;4915838;29;20183;-71
2022/04/03 08:55:57;;;;;;;7.83;7.27;;;7.80;99.90;;;;;;4914400;29;20628;-71
2022/04/03 08:58:23;;;;;;;5.63;5.30;;;7.50;99.90;;;;;;4915350;29;20625;-72
2022/04/03 09:00:49;;;;;;;6.83;6.27;;;7.50;99.90;;;;;;4915833;29;20194;-72
2022/04/03 09:03:14;;;;;;;8.57;7.87;;;7.40;99.90;;;;;;4919308;29;20697;-72
2022/04/03 09:05:43;;;;;;;6.90;6.40;;;7.50;99.90;;;;;;4933490;29;20694;-72
2022/04/03 09:08:10;;;;;;;6.70;6.10;;;8.00;99.90;;;;;;4934144;29;20181;-72
2022/04/03 09:10:36;;;;;;;6.87;6.37;;;8.70;99.90;;;;;;4933177;29;20620;-72
2022/04/03 09:13:03;;;;;;;7.07;6.33;;;8.40;99.90;;;;;;4934432;29;20237;-72
2022/04/03 09:15:30;;;;;;;6.07;5.67;;;8.00;99.90;;;;;;4960443;23;20674;-75
2022/04/03 09:18:01;;;;;;;7.20;6.53;;;7.10;99.90;;;;;;4966248;28;20201;-74
2022/04/03 09:20:31;;;;;;;5.93;5.73;;;6.30;99.90;;;;;;4972669;28;20208;-75
2022/04/03 09:23:03;;;;;;;6.30;5.97;;;5.50;99.90;;;;;;4972046;28;20720;-75
2022/04/03 09:25:39;;;;;;;6.87;6.20;;;5.00;99.90;;;;;;4969197;28;20297;-75
2022/04/03 09:28:11;;;;;;;7.03;6.33;;;5.00;99.90;;;;;;4953138;28;20195;-75
2022/04/03 09:30:43;;;;;;;6.43;5.93;;;5.20;99.90;;;;;;4948876;28;20189;-75
2022/04/03 09:33:11;;;;;;;6.40;5.90;;;5.60;99.90;;;;;;4933203;29;20274;-75
2022/04/03 09:36:03;;;;;;;6.70;6.20;;;5.90;99.90;;;;;;4934450;29;20690;-75
2022/04/03 09:38:35;;;;;;;6.43;5.97;;;6.20;99.90;;;;;;4933714;29;20269;-76
2022/04/03 09:41:01;;;;;;;7.20;6.63;;;6.30;99.90;;;;;;4934091;29;20277;-76
2022/04/03 09:43:28;;;;;;;6.33;5.87;;;6.10;99.90;;;;;;4932844;29;20246;-76
2022/04/03 09:45:56;;;;;;;6.30;5.80;;;6.10;99.90;;;;;;4947493;28;20205;-76
2022/04/03 09:48:33;;;;;;;6.70;6.10;;;6.10;99.90;;;;;;4951848;29;20173;-76
2022/04/03 09:51:03;;;;;;;6.43;5.83;;;6.10;99.90;;;;;;4953052;28;20193;-76
2022/04/03 09:53:40;;;;;;;7.20;6.60;;;6.00;99.90;;;;;;4952901;28;20641;-76
2022/04/03 09:56:08;;;;;;;7.63;7.07;;;5.80;99.90;;;;;;4953070;28;20201;-76
2022/04/03 09:58:52;;;;;;;7.13;6.63;;;5.60;99.90;;;;;;4943373;28;20206;-76
2022/04/03 10:01:29;;;;;;;7.27;6.80;;;5.50;99.90;;;;;;4933871;29;20265;-76
2022/04/03 10:03:58;;;;;;;7.23;6.77;;;5.40;99.90;;;;;;4947364;29;20683;-74
2022/04/03 10:06:24;;;;;;;5.20;4.90;;;5.40;99.90;;;;;;4951980;28;20252;-74
2022/04/03 10:08:50;;;;;;;9.03;7.10;;;5.30;99.90;;;;;;4952651;28;20188;-75
2022/04/03 10:11:16;;;;;;;6.60;6.20;;;5.20;99.90;;;;;;4952928;28;20701;-75
2022/04/03 10:13:43;;;;;;;6.17;5.73;;;5.00;99.90;;;;;;4953023;28;20272;-74
2022/04/03 10:16:13;;;;;;;6.17;5.67;;;4.90;99.90;;;;;;4948115;28;20220;-75
2022/04/03 10:18:47;;;;;;;5.87;5.57;;;4.90;99.90;;;;;;4932218;29;20261;-74
2022/04/03 10:21:13;;;;;;;5.97;5.67;;;5.10;99.90;;;;;;4932572;29;20186;-74
2022/04/03 10:23:41;;;;;;;5.97;5.67;;;5.40;99.90;;;;;;4937718;29;20192;-74
2022/04/03 10:26:09;;;;;;;5.60;5.30;;;6.10;99.90;;;;;;4937378;29;20584;-74
2022/04/03 10:28:38;;;;;;;5.73;5.40;;;7.10;99.90;;;;;;4936049;29;20193;-74
2022/04/03 10:31:07;;;;;;;5.57;5.20;;;7.90;98.30;;;;;;4945457;29;20271;-75
2022/04/03 10:33:38;;;;;;;4.90;4.60;;;9.00;98.90;;;;;;4955507;29;20188;-75
2022/04/03 10:36:12;;;;;;;5.40;5.10;;;9.30;92.00;;;;;;4955638;28;20310;-75
2022/04/03 10:38:55;;;;;;;6.13;5.83;;;8.80;93.70;;;;;;4954972;29;20192;-76
2022/04/03 10:41:25;;;;;;;6.60;6.30;;;8.50;88.60;;;;;;4956468;28;20650;-75
2022/04/03 10:44:13;;;;;;;5.80;5.50;;;8.20;88.20;;;;;;4949728;28;20194;-75
2022/04/03 10:47:03;;;;;;;6.73;6.07;;;7.50;87.60;;;;;;4937662;29;20206;-76
2022/04/03 10:49:38;;;;;;;5.67;5.37;;;7.70;91.60;;;;;;4951687;29;20222;-75
2022/04/03 10:52:05;;;;;;;5.83;5.53;;;8.00;84.10;;;;;;4942307;29;20233;-77
2022/04/03 10:54:40;;;;;;;6.90;5.70;;;7.70;86.50;;;;;;4937625;29;20607;-74
2022/04/03 10:57:43;;;;;;;5.60;5.30;;;7.30;87.20;;;;;;4937712;29;20264;-75
2022/04/03 11:00:12;;;;;;;6.60;6.10;;;7.10;87.30;;;;;;4935807;29;20649;-75
2022/04/03 11:02:39;;;;;;;10.43;7.00;;;6.50;91.30;;;;;;4936802;29;20285;-75
2022/04/03 11:05:25;;;;;;;6.37;5.87;;;6.40;95.30;;;;;;4936883;29;20239;-75
2022/04/03 11:08:00;;;;;;;5.43;5.13;;;6.70;92.50;;;;;;4923324;29;20194;-74
2022/04/03 11:10:48;;;;;;;5.00;4.70;;;6.70;92.30;;;;;;4937227;29;20776;-74
2022/04/03 11:13:20;;;;;;;5.87;5.40;;;6.50;93.00;;;;;;4953622;29;20559;-75
2022/04/03 11:15:50;;;;;;;6.17;5.77;;;6.60;92.20;;;;;;4955958;28;20221;-75
2022/04/03 11:18:33;;;;;;;5.20;4.93;;;6.70;92.70;;;;;;4942803;28;20185;-75
2022/04/03 11:21:31;;;;;;;5.00;4.73;;;7.10;92.30;;;;;;4955400;28;20230;-75
2022/04/03 11:24:13;;;;;;;4.70;4.47;;;7.40;90.50;;;;;;4955106;28;20185;-75
2022/04/03 11:26:40;;;;;;;5.10;4.90;;;7.40;89.80;;;;;;4951616;28;20215;-74
2022/04/03 11:29:09;;;;;;;5.97;5.67;;;8.10;88.50;;;;;;4955060;28;20217;-74
2022/04/03 11:31:35;;;;;;;18.00;16.80;;;8.90;83.40;;;;;;4954824;28;20796;-72
2022/04/03 11:34:01;;;;;;;5.67;5.37;;;9.70;79.80;;;;;;4953883;28;20183;-74
2022/04/03 11:36:30;;;;;;;5.90;5.50;;;9.30;81.30;;;;;;4954051;28;20211;-74
2022/04/03 11:38:58;;;;;;;7.77;7.20;;;9.90;80.50;;;;;;4953972;28;20276;-75
2022/04/03 11:41:31;;;;;;;1999.90;997.10;;;10.50;79.90;;;;;;4955578;28;20843;-75
2022/04/03 11:44:11;;;;;;;1120.77;406.83;;;10.20;77.40;;;;;;4959618;28;20194;-75
2022/04/03 11:46:40;;;;;;;602.63;247.33;;;10.50;78.40;;;;;;4958980;28;20248;-74
2022/04/03 11:49:21;;;;;;;717.17;301.43;;;10.00;78.00;;;;;;4953327;28;20280;-74
2022/04/03 11:51:53;;;;;;;11.53;10.60;;;9.20;77.50;;;;;;4938713;29;20214;-78
2022/04/03 11:54:19;;;;;;;7.17;6.67;;;9.50;76.00;;;;;;4939635;29;20247;-79
2022/04/03 11:56:45;;;;;;;6.83;6.27;;;10.60;79.40;;;;;;4954394;28;20197;-80
2022/04/03 11:59:11;;;;;;;6.90;6.50;;;11.90;74.00;;;;;;4955607;29;20182;-80
2022/04/03 12:01:41;;;;;;;7.10;6.47;;;12.60;63.60;;;;;;4945994;29;20199;-77
2022/04/03 12:04:15;;;;;;;6.70;6.20;;;13.40;59.90;;;;;;4945059;29;20194;-76
2022/04/03 12:06:42;;;;;;;5.97;5.50;;;13.80;58.60;;;;;;4949834;29;20233;-77
2022/04/03 12:09:13;;;;;;;5.73;5.33;;;14.20;56.90;;;;;;4946328;29;20188;-77
2022/04/03 12:11:42;;;;;;;5.57;5.17;;;13.90;54.50;;;;;;4954577;29;20214;-78
2022/04/03 12:14:09;;;;;;;5.87;5.47;;;12.60;57.50;;;;;;4955323;29;20242;-78
2022/04/03 12:16:39;;;;;;;5.40;5.10;;;11.70;59.10;;;;;;4955304;28;20256;-77
2022/04/03 12:19:08;;;;;;;5.57;5.17;;;11.00;62.70;;;;;;4956368;28;20553;-77
2022/04/03 12:21:47;;;;;;;6.70;6.37;;;10.20;64.70;;;;;;4952237;29;20189;-78
2022/04/03 12:24:16;;;;;;;6.30;6.00;;;9.40;71.60;;;;;;4947389;29;20178;-78
2022/04/03 12:26:49;;;;;;;7.03;6.57;;;9.80;72.70;;;;;;4955361;29;20696;-77
2022/04/03 12:29:16;;;;;;;6.30;5.90;;;10.30;65.50;;;;;;4953586;29;20188;-77
2022/04/03 12:31:42;;;;;;;6.80;6.43;;;11.60;63.20;;;;;;4949754;29;20205;-74
2022/04/03 12:34:15;;;;;;;6.37;5.70;;;12.70;63.70;;;;;;4952442;29;20195;-73
2022/04/03 12:36:44;;;;;;;5.63;5.17;;;13.80;60.00;;;;;;4950193;29;20214;-74
2022/04/03 12:39:44;;;;;;;7.53;4.97;;;14.40;56.10;;;;;;4945368;29;20217;-74
2022/04/03 12:42:22;;;;;;;5.03;4.73;;;13.00;56.30;;;;;;4936904;29;20207;-74
2022/04/03 12:44:48;;;;;;;5.93;5.43;;;11.20;57.10;;;;;;4935381;29;20187;-73
2022/04/03 12:47:15;;;;;;;5.63;5.23;;;9.70;60.80;;;;;;4933174;29;20572;-73
2022/04/03 12:49:48;;;;;;;6.03;5.73;;;8.50;63.50;;;;;;4933595;29;20198;-74
2022/04/03 12:52:40;;;;;;;6.70;6.10;;;7.70;66.80;;;;;;4934676;29;20221;-73
2022/04/03 12:55:23;;;;;;;6.37;6.03;;;7.00;68.90;;;;;;4933399;29;20186;-74
2022/04/03 13:00:48;;;;;;;5.13;4.93;;;7.10;76.10;;;;;;4934431;29;20186;-74
2022/04/03 13:03:33;;;;;;;5.27;4.87;;;7.50;72.90;;;;;;4937115;29;20204;-74
2022/04/03 13:06:19;;;;;;;5.40;5.10;;;7.60;73.40;;;;;;4953859;28;20365;-74
2022/04/03 13:08:51;;;;;;;5.97;5.67;;;7.80;72.20;;;;;;4951894;29;20193;-74
2022/04/03 13:11:37;;;;;;;5.87;5.33;;;7.80;68.50;;;;;;4952327;29;20271;-73
2022/04/03 13:14:18;;;;;;;5.80;5.50;;;7.30;69.40;;;;;;4953430;28;20182;-74
2022/04/03 13:16:48;;;;;;;5.60;5.23;;;7.60;71.00;;;;;;4946526;28;20299;-73
2022/04/03 13:19:15;;;;;;;5.77;5.47;;;8.10;71.60;;;;;;4933156;29;20192;-72
2022/04/03 13:21:41;;;;;;;5.37;5.00;;;8.40;72.20;;;;;;4934188;29;20272;-73
2022/04/03 13:24:10;;;;;;;6.40;5.80;;;9.60;64.80;;;;;;4933153;29;20266;-73
2022/04/03 13:26:36;;;;;;;5.23;4.93;;;10.80;63.00;;;;;;4932833;29;20229;-73
2022/04/03 13:29:02;;;;;;;5.20;5.00;;;12.00;60.10;;;;;;4932430;29;20245;-73
2022/04/03 13:31:28;;;;;;;4.63;4.33;;;12.30;56.80;;;;;;4948272;29;20206;-73
2022/04/03 13:33:54;;;;;;;5.07;4.83;;;12.50;54.40;;;;;;4953140;29;20658;-73
2022/04/03 13:36:19;;;;;;;4.97;4.60;;;12.90;55.00;;;;;;4951838;28;20194;-73
2022/04/03 13:38:46;;;;;;;5.50;5.00;;;12.50;56.90;;;;;;4951488;29;20180;-73
2022/04/03 13:41:13;;;;;;;5.27;4.87;;;11.60;54.40;;;;;;4953124;29;20531;-73
2022/04/03 13:43:42;;;;;;;4.90;4.50;;;10.60;57.80;;;;;;4951019;28;20283;-73
2022/04/03 13:46:08;;;;;;;4.83;4.63;;;9.80;59.30;;;;;;4935026;29;20206;-74
2022/04/03 13:48:38;;;;;;;4.80;4.60;;;9.40;59.10;;;;;;4933305;29;20557;-74
2022/04/03 13:51:09;;;;;;;5.40;5.00;;;10.50;57.90;;;;;;4933927;29;20265;-74
2022/04/03 13:53:36;;;;;;;4.63;4.43;;;12.90;53.30;;;;;;4932556;29;20182;-74
2022/04/03 13:56:03;;;;;;;5.23;4.73;;;14.60;48.40;;;;;;4931778;29;20208;-74
2022/04/03 13:58:29;;;;;;;5.60;5.30;;;15.30;48.40;;;;;;4944812;29;20192;-73
2022/04/03 14:00:57;;;;;;;6.63;6.23;;;16.40;45.30;;;;;;4952879;28;20182;-73
2022/04/03 14:03:22;;;;;;;5.73;5.33;;;16.10;45.00;;;;;;4951707;29;20181;-75
2022/04/03 14:05:49;;;;;;;5.70;5.20;;;16.00;44.20;;;;;;4952753;28;20702;-72
2022/04/03 14:08:17;;;;;;;6.63;6.03;;;14.20;46.80;;;;;;4952452;28;20190;-75
2022/04/03 14:10:44;;;;;;;6.10;5.80;;;12.70;47.30;;;;;;4951611;28;20179;-72
2022/04/03 14:13:10;;;;;;;5.30;5.00;;;11.20;52.40;;;;;;4936396;29;20689;-73
2022/04/03 14:15:39;;;;;;;5.33;4.37;;;10.10;55.40;;;;;;4932273;29;20234;-73
2022/04/03 14:18:05;;;;;;;5.20;4.90;;;9.20;56.90;;;;;;4933313;29;20614;-73
2022/04/03 14:20:30;;;;;;;5.50;5.10;;;8.70;57.70;;;;;;4932359;29;20186;-73
2022/04/03 14:22:56;;;;;;;5.00;4.73;;;8.30;60.00;;;;;;4933825;29;20279;-72
2022/04/03 14:25:22;;;;;;;5.70;5.40;;;7.80;59.60;;;;;;4957385;28;20273;-73
2022/04/03 14:27:48;;;;;;;5.20;4.90;;;7.40;62.60;;;;;;4961042;29;20871;-73
2022/04/03 14:30:14;;;;;;;5.77;5.37;;;7.00;65.80;;;;;;4953887;28;20218;-73
2022/04/03 14:32:45;;;;;;;7.57;6.97;;;6.70;67.10;;;;;;4953285;29;20698;-74
2022/04/03 14:35:15;;;;;;;6.00;5.70;;;6.70;70.00;;;;;;4952867;28;20276;-73
2022/04/03 14:37:45;;;;;;;6.67;6.17;;;6.50;68.80;;;;;;4952127;28;20188;-73
2022/04/03 14:40:13;;;;;;;6.23;5.90;;;6.20;69.70;;;;;;4935161;28;20190;-75
2022/04/03 14:42:40;;;;;;;5.77;5.47;;;6.10;71.60;;;;;;4932294;29;20191;-74
2022/04/03 14:45:07;;;;;;;5.47;5.17;;;6.20;69.60;;;;;;4935530;28;20198;-75
2022/04/03 14:47:33;;;;;;;5.67;5.20;;;6.40;69.60;;;;;;4932604;29;20176;-75
2022/04/03 14:50:05;;;;;;;5.90;5.60;;;6.50;69.50;;;;;;4943987;29;20193;-74
2022/04/03 14:52:34;;;;;;;5.93;5.63;;;6.70;71.60;;;;;;4939607;29;20296;-74
2022/04/03 14:55:00;;;;;;;5.70;5.40;;;7.00;71.90;;;;;;4950834;29;20182;-74
2022/04/03 14:57:26;;;;;;;5.60;5.30;;;7.20;73.10;;;;;;4951293;28;20204;-75
2022/04/03 14:59:53;;;;;;;6.70;6.20;;;7.30;72.90;;;;;;4951317;29;20174;-75
2022/04/03 15:02:19;;;;;;;8.87;7.43;;;7.30;69.60;;;;;;4950918;29;20269;-75
2022/04/03 15:04:45;;;;;;;8.50;7.80;;;7.40;66.90;;;;;;4950161;29;20702;-75
2022/04/03 15:07:12;;;;;;;6.10;5.70;;;7.50;69.00;;;;;;4940250;28;20207;-77
2022/04/03 15:09:38;;;;;;;5.73;5.33;;;7.50;69.60;;;;;;4942069;29;20182;-83
2022/04/03 15:12:05;;;;;;;6.20;5.67;;;7.40;68.80;;;;;;4939385;29;20218;-80
2022/04/03 15:14:32;;;;;;;5.73;5.43;;;7.40;66.20;;;;;;4946099;29;20229;-78
2022/04/03 15:16:59;;;;;;;6.53;6.07;;;8.10;67.50;;;;;;4958067;29;20556;-78
2022/04/03 15:19:26;;;;;;;5.90;5.50;;;10.10;60.20;;;;;;4961572;23;20317;-75
2022/04/03 15:21:52;;;;;;;5.83;5.43;;;12.30;57.00;;;;;;4930408;29;20190;-75
2022/04/03 15:24:18;;;;;;;6.03;5.43;;;11.90;54.00;;;;;;4936043;29;20182;-75
2022/04/03 15:26:47;;;;;;;5.43;5.13;;;12.70;52.60;;;;;;4916528;29;20194;-75
2022/04/03 15:29:14;;;;;;;5.20;4.80;;;13.60;52.80;;;;;;4927282;29;20211;-76
2022/04/03 15:31:40;;;;;;;5.00;4.70;;;13.30;52.10;;;;;;4936895;29;20215;-80
2022/04/03 15:34:05;;;;;;;5.13;4.83;;;11.50;53.00;;;;;;4935445;29;20749;-76
2022/04/03 15:36:31;;;;;;;5.33;5.03;;;10.30;57.00;;;;;;4935557;29;20999;-76
2022/04/03 15:39:05;;;;;;;5.43;4.93;;;9.90;57.70;;;;;;4933758;29;20202;-69
2022/04/03 15:41:31;;;;;;;7.00;6.40;;;9.30;59.20;;;;;;4935972;29;20198;-70
2022/04/03 15:43:56;;;;;;;5.33;5.03;;;8.80;62.00;;;;;;4935094;29;20646;-69
2022/04/03 15:46:23;;;;;;;5.70;5.40;;;8.50;61.10;;;;;;4933662;29;20193;-75
2022/04/03 15:48:49;;;;;;;5.33;5.13;;;7.80;62.70;;;;;;4929494;29;20687;-75
2022/04/03 15:51:21;;;;;;;6.23;5.73;;;7.20;63.10;;;;;;4927366;29;20210;-74
2022/04/03 15:53:51;;;;;;;5.77;5.47;;;6.70;65.30;;;;;;4935291;29;20238;-73
2022/04/03 15:56:18;;;;;;;6.10;5.70;;;6.20;66.00;;;;;;4934996;29;20679;-74
2022/04/03 15:58:45;;;;;;;5.93;5.63;;;6.00;69.50;;;;;;4941158;29;20194;-74